Main page
METAR-TAF:

METAR-TAF

Airports :

RAF Fairford

Fairford, England

latitude: 51-41N, longitude: 001-47W, elevation: 87 m

Current weather observation

The report was made 39 minutes ago, at 19:56 UTC
Wind 3 kt from the North/Northwest
Temperature 19°C
Humidity 49%
Pressure 1029 hPa
Visibility 10 km or more
Clear sky

METAR: EGVA 221956Z AUTO 33003KT 9999 CLR 19/08 A3040 RMK AO2 SLP297 T01860080

Time: 21:35 (20:35 UTC)


TAF: missing

Weather observations and forecasts of more than 4000 airports (METAR and TAF reports).

The available stations are represented by yellow and red dots on the map.

Hover mouse over dot to see the name of the station.

Then click to see weather observations and forecasts.

To change the map : click on the green buttons with a black cross to zoom in, on the green button with a dash to zoom out, or on the green arrows for adjacent maps.


METAR-TAF: